createdAt,value
2022-09-12T00:00:41.969Z,99.12
2022-09-12T00:03:08.962Z,99.10
2022-09-12T00:05:44.411Z,99.07
2022-09-12T00:08:12.026Z,99.15
2022-09-12T00:10:42.898Z,99.04
2022-09-12T00:13:10.710Z,99.00
2022-09-12T00:15:39.735Z,98.97
2022-09-12T00:18:08.311Z,98.92
2022-09-12T00:20:35.213Z,98.94
2022-09-12T00:23:02.091Z,98.87
2022-09-12T00:25:30.721Z,98.82
2022-09-12T00:27:57.664Z,98.82
2022-09-12T00:30:25.279Z,98.82
2022-09-12T00:32:54.666Z,98.81
2022-09-12T00:35:21.261Z,98.80
2022-09-12T00:37:48.348Z,98.79
2022-09-12T00:40:15.113Z,98.82
2022-09-12T00:42:41.747Z,98.78
2022-09-12T00:45:23.138Z,98.77
2022-09-12T00:47:49.832Z,98.76
2022-09-12T00:50:18.019Z,98.75
2022-09-12T00:52:50.873Z,98.78
2022-09-12T00:55:26.550Z,98.81
2022-09-12T00:57:57.904Z,98.85
2022-09-12T01:00:26.971Z,98.83
2022-09-12T01:03:02.219Z,99.00
2022-09-12T01:05:31.682Z,99.03
2022-09-12T01:08:02.398Z,98.94
2022-09-12T01:10:30.357Z,98.89
2022-09-12T01:12:57.411Z,98.94
2022-09-12T01:15:24.106Z,99.00
2022-09-12T01:18:19.166Z,98.95
2022-09-12T01:21:03.160Z,99.13
2022-09-12T01:23:44.807Z,99.15
2022-09-12T01:26:46.380Z,98.21
2022-09-12T01:29:38.077Z,98.00
2022-09-12T01:32:10.533Z,97.72
2022-09-12T01:34:51.927Z,97.73
2022-09-12T01:37:28.193Z,97.63
2022-09-12T01:40:16.348Z,97.02
2022-09-12T01:42:52.938Z,96.77
2022-09-12T01:45:39.499Z,96.95
2022-09-12T01:48:15.262Z,97.07
2022-09-12T01:50:56.791Z,97.00
2022-09-12T01:53:32.328Z,96.83
2022-09-12T01:56:10.252Z,97.05
2022-09-12T01:58:49.436Z,97.24
2022-09-12T02:01:23.220Z,97.04
2022-09-12T02:03:54.153Z,97.02
2022-09-12T02:06:26.462Z,96.85
2022-09-12T02:08:58.550Z,96.83
2022-09-12T02:11:25.307Z,96.55
2022-09-12T02:13:56.584Z,96.61
2022-09-12T02:16:35.196Z,95.98
2022-09-12T02:19:12.711Z,95.62
2022-09-12T02:21:48.264Z,95.58
2022-09-12T02:24:16.402Z,95.00
2022-09-12T02:26:50.124Z,94.70
2022-09-12T02:29:17.231Z,94.57
2022-09-12T02:31:52.858Z,94.88
2022-09-12T02:34:34.712Z,94.85
2022-09-12T02:37:13.089Z,94.90
2022-09-12T02:39:44.950Z,94.96
2022-09-12T02:42:13.082Z,94.88
2022-09-12T02:44:40.330Z,95.01
2022-09-12T02:47:18.052Z,95.03
2022-09-12T02:49:45.877Z,94.84
2022-09-12T02:52:12.748Z,94.49
2022-09-12T02:54:39.604Z,94.24
2022-09-12T02:57:21.857Z,94.14
2022-09-12T02:59:53.274Z,94.17
2022-09-12T03:02:30.383Z,93.87
2022-09-12T03:05:24.913Z,94.06
2022-09-12T03:08:00.942Z,94.41
2022-09-12T03:10:48.821Z,94.42
2022-09-12T03:13:18.693Z,94.74
2022-09-12T03:16:24.697Z,94.80
2022-09-12T03:19:03.275Z,94.96
2022-09-12T03:21:57.701Z,94.95
2022-09-12T03:24:34.757Z,95.20
2022-09-12T03:27:27.483Z,95.20
2022-09-12T03:29:55.843Z,95.50
2022-09-12T03:32:40.883Z,95.59
2022-09-12T03:35:08.647Z,95.74
2022-09-12T03:37:35.295Z,96.08
2022-09-12T03:40:03.983Z,96.14
2022-09-12T03:42:31.144Z,94.69
2022-09-12T03:44:57.770Z,90.62
2022-09-12T03:47:24.439Z,88.61
2022-09-12T03:49:52.778Z,87.74
2022-09-12T03:52:19.770Z,86.88
2022-09-12T03:54:46.440Z,86.17
2022-09-12T03:57:13.371Z,85.64
2022-09-12T03:59:40.017Z,86.66
2022-09-12T04:02:06.777Z,85.96
2022-09-12T04:04:33.721Z,86.21
2022-09-12T04:07:00.324Z,86.61
2022-09-12T04:09:26.930Z,86.04
2022-09-12T04:11:53.802Z,85.26
2022-09-12T04:14:20.407Z,86.58
2022-09-12T04:16:47.104Z,86.29
2022-09-12T04:19:14.300Z,86.42
2022-09-12T04:21:41.289Z,86.23
2022-09-12T04:24:07.927Z,85.93
2022-09-12T04:26:34.995Z,85.14
2022-09-12T04:29:01.600Z,85.65
2022-09-12T04:31:28.227Z,85.83
2022-09-12T04:34:00.437Z,86.69
2022-09-12T04:36:27.633Z,86.78
2022-09-12T04:38:55.234Z,86.93
2022-09-12T04:41:31.312Z,86.09
2022-09-12T04:44:03.503Z,85.84
2022-09-12T04:46:33.014Z,86.03
2022-09-12T04:48:59.698Z,86.52
2022-09-12T04:51:32.049Z,86.74
2022-09-12T04:54:01.483Z,87.20
2022-09-12T04:56:30.305Z,86.69
2022-09-12T04:58:58.735Z,86.71
2022-09-12T05:01:26.941Z,87.22
2022-09-12T05:03:54.620Z,87.41
2022-09-12T05:06:24.254Z,87.28
2022-09-12T05:08:52.771Z,86.55
2022-09-12T05:11:24.929Z,86.34
2022-09-12T05:13:53.064Z,85.78
2022-09-12T05:16:21.083Z,85.71
2022-09-12T05:18:48.819Z,86.07
2022-09-12T05:21:17.900Z,86.72
2022-09-12T05:23:47.723Z,86.40
2022-09-12T05:26:16.194Z,86.50
2022-09-12T05:28:43.911Z,86.26
2022-09-12T05:31:16.620Z,86.52
2022-09-12T05:33:45.379Z,86.29
2022-09-12T05:36:15.500Z,85.03
2022-09-12T05:38:42.214Z,84.92
2022-09-12T05:41:16.633Z,85.51
2022-09-12T05:43:45.738Z,85.07
2022-09-12T05:46:17.483Z,84.93
2022-09-12T05:48:45.897Z,85.42
2022-09-12T05:51:22.845Z,84.84
2022-09-12T05:53:52.735Z,84.86
2022-09-12T05:56:23.353Z,85.48
2022-09-12T05:58:55.926Z,84.50
2022-09-12T06:01:23.022Z,84.60
2022-09-12T06:03:52.760Z,84.41
2022-09-12T06:06:21.794Z,84.62
2022-09-12T06:08:50.697Z,84.37
2022-09-12T06:11:20.873Z,84.30
2022-09-12T06:13:47.944Z,84.63
2022-09-12T06:16:18.058Z,83.94
2022-09-12T06:18:50.003Z,82.92
2022-09-12T06:21:16.635Z,83.35
2022-09-12T06:23:46.197Z,82.28
2022-09-12T06:26:13.902Z,81.96
2022-09-12T06:28:42.405Z,82.27
2022-09-12T06:31:18.597Z,83.17
2022-09-12T06:33:48.013Z,82.22
2022-09-12T06:36:21.320Z,81.91
2022-09-12T06:38:48.934Z,80.08
2022-09-12T06:41:15.983Z,80.94
2022-09-12T06:43:42.937Z,79.86
2022-09-12T06:46:10.822Z,80.27
2022-09-12T06:48:41.809Z,80.38
2022-09-12T06:51:14.942Z,80.14
2022-09-12T06:53:44.336Z,80.21
2022-09-12T06:56:19.515Z,80.63
2022-09-12T06:58:48.225Z,79.39
2022-09-12T07:01:15.577Z,79.62
2022-09-12T07:03:44.405Z,79.58
2022-09-12T07:06:13.855Z,79.12
2022-09-12T07:08:41.093Z,79.51
2022-09-12T07:11:14.170Z,76.94
2022-09-12T07:13:43.282Z,78.45
2022-09-12T07:16:12.278Z,78.53
2022-09-12T07:18:41.544Z,77.25
2022-09-12T07:21:12.390Z,77.84
2022-09-12T07:23:40.147Z,77.71
2022-09-12T07:26:08.114Z,77.43
2022-09-12T07:28:34.988Z,77.88
2022-09-12T07:31:11.121Z,77.75
2022-09-12T07:33:39.529Z,76.82
2022-09-12T07:36:11.557Z,76.62
2022-09-12T07:38:39.516Z,76.11
2022-09-12T07:41:17.470Z,75.85
2022-09-12T07:43:45.526Z,75.35
2022-09-12T07:46:12.680Z,74.90
2022-09-12T07:48:39.543Z,74.51
2022-09-12T07:51:11.589Z,72.11
2022-09-12T07:53:40.624Z,72.71
2022-09-12T07:56:10.372Z,72.64
2022-09-12T07:58:38.864Z,72.70
2022-09-12T08:01:16.791Z,72.12
2022-09-12T08:03:46.108Z,72.83
2022-09-12T08:06:24.147Z,73.23
2022-09-12T08:08:52.792Z,73.48
2022-09-12T08:11:21.863Z,73.95
2022-09-12T08:13:54.824Z,73.63
2022-09-12T08:16:25.270Z,72.40
2022-09-12T08:18:52.428Z,71.93
2022-09-12T08:21:21.733Z,71.85
2022-09-12T08:23:56.493Z,72.35
2022-09-12T08:26:23.576Z,70.00
2022-09-12T08:28:51.019Z,70.00
2022-09-12T08:31:19.296Z,69.79
2022-09-12T08:33:46.660Z,70.67
2022-09-12T08:36:21.127Z,69.87
2022-09-12T08:38:50.155Z,71.01
2022-09-12T08:41:41.947Z,69.83
2022-09-12T08:44:11.675Z,70.60
2022-09-12T08:47:25.176Z,71.17
2022-09-12T08:49:59.344Z,71.98
2022-09-12T08:52:51.942Z,70.14
2022-09-12T08:55:44.617Z,70.98
2022-09-12T08:58:17.877Z,71.56
2022-09-12T09:00:56.164Z,72.16
2022-09-12T09:03:44.308Z,71.08
2022-09-12T09:06:42.258Z,70.31
2022-09-12T09:09:43.649Z,68.52
2022-09-12T09:12:13.301Z,68.24
2022-09-12T09:14:56.356Z,67.43
2022-09-12T09:17:33.934Z,68.23
2022-09-12T09:20:16.469Z,67.06
2022-09-12T09:23:03.601Z,67.86
2022-09-12T09:25:41.681Z,68.66
2022-09-12T09:28:20.911Z,68.50
2022-09-12T09:30:48.574Z,69.00
2022-09-12T09:33:24.661Z,68.59
2022-09-12T09:36:18.657Z,68.92
2022-09-12T09:38:49.887Z,70.02
2022-09-12T09:41:54.475Z,69.82
2022-09-12T09:44:21.245Z,69.64
2022-09-12T09:46:54.735Z,69.05
2022-09-12T09:49:22.181Z,69.73
2022-09-12T09:51:49.409Z,68.43
2022-09-12T09:54:25.570Z,69.46
2022-09-12T09:56:52.806Z,69.18
2022-09-12T09:59:31.278Z,69.86
2022-09-12T10:02:21.928Z,68.76
2022-09-12T10:04:56.398Z,69.01
2022-09-12T10:07:26.159Z,68.59
2022-09-12T10:10:07.428Z,69.08
2022-09-12T10:12:34.314Z,68.89
2022-09-12T10:15:15.842Z,68.42
2022-09-12T10:17:46.451Z,68.82
2022-09-12T10:20:35.584Z,69.09
2022-09-12T10:23:19.903Z,68.76
2022-09-12T10:25:48.710Z,70.73
2022-09-12T10:28:27.114Z,69.07
2022-09-12T10:30:56.139Z,69.18
2022-09-12T10:33:24.876Z,70.62
2022-09-12T10:35:53.663Z,71.51
2022-09-12T10:38:23.813Z,72.43
2022-09-12T10:41:01.427Z,73.72
2022-09-12T10:43:37.380Z,74.53
2022-09-12T10:46:16.394Z,74.76
2022-09-12T10:48:45.373Z,74.63
2022-09-12T10:51:27.795Z,75.63
2022-09-12T10:53:57.608Z,75.15
2022-09-12T10:56:47.423Z,74.64
2022-09-12T10:59:40.295Z,74.94
2022-09-12T11:02:30.499Z,74.74
2022-09-12T11:05:38.750Z,74.61
2022-09-12T11:08:46.935Z,74.41
2022-09-12T11:11:33.341Z,74.85
2022-09-12T11:14:17.269Z,73.99
2022-09-12T11:16:55.071Z,74.56
2022-09-12T11:19:56.219Z,74.51
2022-09-12T11:23:10.947Z,74.72
2022-09-12T11:25:40.517Z,74.83
2022-09-12T11:28:49.293Z,75.11
2022-09-12T11:31:43.059Z,75.37
2022-09-12T11:34:11.663Z,76.10
2022-09-12T11:37:32.842Z,75.85
2022-09-12T11:40:06.664Z,75.85
2022-09-12T11:42:37.673Z,75.50
2022-09-12T11:45:16.905Z,75.69
2022-09-12T11:47:49.926Z,75.61
2022-09-12T11:50:28.675Z,75.93
2022-09-12T11:53:00.095Z,76.89
2022-09-12T11:55:32.524Z,76.63
2022-09-12T11:58:00.024Z,76.67
2022-09-12T12:00:36.283Z,76.80
2022-09-12T12:03:18.562Z,76.56
2022-09-12T12:05:45.175Z,76.55
2022-09-12T12:08:12.457Z,75.54
2022-09-12T12:10:39.044Z,75.58
2022-09-12T12:13:14.041Z,75.96
2022-09-12T12:15:47.999Z,76.44
2022-09-12T12:18:19.202Z,76.78
2022-09-12T12:20:46.884Z,75.61
2022-09-12T12:23:35.252Z,76.37
2022-09-12T12:26:04.840Z,75.82
2022-09-12T12:28:50.676Z,76.26
2022-09-12T12:31:18.903Z,76.20
2022-09-12T12:33:45.587Z,77.12
2022-09-12T12:36:40.357Z,75.62
2022-09-12T12:39:33.465Z,76.17
2022-09-12T12:42:01.215Z,76.83
2022-09-12T12:44:47.338Z,76.89
2022-09-12T12:47:25.710Z,76.98
2022-09-12T12:49:54.945Z,76.96
2022-09-12T12:52:22.254Z,77.04
2022-09-12T12:54:52.747Z,77.45
2022-09-12T12:57:50.283Z,77.04
2022-09-12T13:00:26.813Z,76.99
2022-09-12T13:03:06.698Z,77.49
2022-09-12T13:06:07.309Z,77.43
2022-09-12T13:08:39.184Z,77.03
2022-09-12T13:11:11.891Z,77.03
2022-09-12T13:13:47.555Z,77.17
2022-09-12T13:16:37.088Z,77.47
2022-09-12T13:19:18.141Z,77.29
2022-09-12T13:22:01.085Z,77.14
2022-09-12T13:24:28.769Z,77.24
2022-09-12T13:26:57.722Z,77.52
2022-09-12T13:29:26.735Z,76.97
2022-09-12T13:32:01.380Z,77.32
2022-09-12T13:34:35.333Z,77.38
2022-09-12T13:37:21.135Z,76.40
2022-09-12T13:39:50.154Z,76.87
2022-09-12T13:42:31.504Z,76.64
2022-09-12T13:45:10.371Z,76.58
2022-09-12T13:47:44.317Z,76.14
2022-09-12T13:50:22.275Z,76.06
2022-09-12T13:52:54.946Z,76.24
2022-09-12T13:55:31.680Z,76.14
2022-09-12T13:58:02.371Z,75.92
2022-09-12T14:00:32.087Z,76.35
2022-09-12T14:03:18.248Z,76.59
2022-09-12T14:05:55.102Z,76.65
2022-09-12T14:08:23.981Z,77.10
2022-09-12T14:10:51.548Z,77.27
2022-09-12T14:13:27.057Z,77.57
2022-09-12T14:15:56.325Z,78.42
2022-09-12T14:18:31.875Z,78.01
2022-09-12T14:21:10.435Z,77.40
2022-09-12T14:23:47.906Z,78.62
2022-09-12T14:26:17.845Z,78.93
2022-09-12T14:28:47.628Z,77.70
2022-09-12T14:31:15.782Z,79.27
2022-09-12T14:33:52.874Z,77.27
2022-09-12T14:36:24.071Z,79.15
2022-09-12T14:38:56.875Z,78.73
2022-09-12T14:41:30.617Z,79.45
2022-09-12T14:44:05.293Z,79.81
2022-09-12T14:46:38.076Z,79.98
2022-09-12T14:49:16.449Z,79.47
2022-09-12T14:52:05.789Z,78.87
2022-09-12T14:54:33.948Z,78.86
2022-09-12T14:57:07.207Z,77.76
2022-09-12T14:59:39.936Z,77.45
2022-09-12T15:02:24.771Z,77.44
2022-09-12T15:05:16.299Z,77.32
2022-09-12T15:07:56.156Z,77.58
2022-09-12T15:10:31.819Z,78.87
2022-09-12T15:13:17.030Z,79.37
2022-09-12T15:15:49.487Z,77.95
2022-09-12T15:18:17.133Z,78.27
2022-09-12T15:20:46.645Z,80.75
2022-09-12T15:23:31.459Z,81.16
2022-09-12T15:25:59.434Z,81.75
2022-09-12T15:28:26.931Z,81.99
2022-09-12T15:30:56.010Z,82.85
2022-09-12T15:33:25.200Z,83.71
2022-09-12T15:35:53.471Z,83.42
2022-09-12T15:38:25.614Z,83.29
2022-09-12T15:40:54.208Z,82.52
2022-09-12T15:43:22.530Z,83.62
2022-09-12T15:45:51.731Z,83.16
2022-09-12T15:48:20.637Z,83.18
2022-09-12T15:50:47.502Z,83.49
2022-09-12T15:53:16.440Z,83.76
2022-09-12T15:55:44.344Z,83.46
2022-09-12T15:58:11.075Z,83.41
2022-09-12T16:00:37.784Z,82.80
2022-09-12T16:03:04.961Z,82.88
2022-09-12T16:05:32.319Z,83.22
2022-09-12T16:07:59.055Z,83.34
2022-09-12T16:10:29.715Z,83.35
2022-09-12T16:12:56.797Z,83.60
2022-09-12T16:15:25.148Z,83.80
2022-09-12T16:17:52.490Z,84.97
2022-09-12T16:20:19.590Z,84.86
2022-09-12T16:22:46.732Z,85.13
2022-09-12T16:25:14.022Z,84.87
2022-09-12T16:27:41.279Z,85.27
2022-09-12T16:30:10.278Z,86.50
2022-09-12T16:32:37.259Z,86.77
2022-09-12T16:35:04.264Z,87.01
2022-09-12T16:37:32.113Z,87.17
2022-09-12T16:39:59.132Z,87.28
2022-09-12T16:42:25.865Z,87.75
2022-09-12T16:44:52.547Z,87.60
2022-09-12T16:47:19.828Z,88.01
2022-09-12T16:49:46.556Z,87.93
2022-09-12T16:52:16.528Z,88.09
2022-09-12T16:54:46.679Z,88.26
2022-09-12T16:57:13.480Z,88.41
2022-09-12T16:59:40.469Z,88.78
2022-09-12T17:02:08.334Z,89.08
2022-09-12T17:04:35.092Z,89.16
2022-09-12T17:07:01.820Z,88.74
2022-09-12T17:09:29.435Z,88.66
2022-09-12T17:11:56.469Z,89.23
2022-09-12T17:14:24.171Z,89.76
2022-09-12T17:16:52.209Z,89.67
2022-09-12T17:19:29.600Z,89.72
2022-09-12T17:21:57.675Z,90.37
2022-09-12T17:24:24.775Z,90.42
2022-09-12T17:26:52.392Z,90.28
2022-09-12T17:29:19.683Z,90.07
2022-09-12T17:31:46.597Z,90.10
2022-09-12T17:34:17.624Z,90.20
2022-09-12T17:36:45.792Z,89.67
2022-09-12T17:39:13.835Z,89.95
2022-09-12T17:41:42.725Z,90.01
2022-09-12T17:44:12.484Z,89.09
2022-09-12T17:46:39.866Z,89.20
2022-09-12T17:49:11.764Z,88.51
2022-09-12T17:51:39.783Z,88.51
2022-09-12T17:54:10.631Z,89.04
2022-09-12T17:56:38.003Z,89.10
2022-09-12T17:59:07.141Z,89.34
2022-09-12T18:01:52.749Z,89.02
2022-09-12T18:04:20.224Z,88.78
2022-09-12T18:06:50.396Z,88.65
2022-09-12T18:09:21.719Z,89.18
2022-09-12T18:11:49.560Z,89.06
2022-09-12T18:14:17.252Z,89.20
2022-09-12T18:16:45.147Z,89.12
2022-09-12T18:19:12.984Z,89.42
2022-09-12T18:21:41.104Z,89.43
2022-09-12T18:24:09.285Z,89.42
2022-09-12T18:26:36.992Z,89.47
2022-09-12T18:29:04.748Z,89.75
2022-09-12T18:31:31.962Z,89.79
2022-09-12T18:34:00.408Z,89.66
2022-09-12T18:36:28.068Z,89.90
2022-09-12T18:38:56.686Z,89.88
2022-09-12T18:41:24.903Z,90.08
2022-09-12T18:43:56.867Z,90.27
2022-09-12T18:46:24.975Z,90.31
2022-09-12T18:48:52.031Z,90.47
2022-09-12T18:51:21.166Z,90.40
2022-09-12T18:53:52.034Z,90.18
2022-09-12T18:56:19.580Z,90.55
2022-09-12T18:58:50.541Z,91.01
2022-09-12T19:01:23.268Z,91.18
2022-09-12T19:03:50.415Z,91.20
2022-09-12T19:06:20.630Z,91.06
2022-09-12T19:08:48.774Z,91.24
2022-09-12T19:11:16.493Z,91.16
2022-09-12T19:13:45.159Z,91.80
2022-09-12T19:16:15.153Z,92.22
2022-09-12T19:18:42.288Z,92.90
2022-09-12T19:21:15.547Z,93.29
2022-09-12T19:23:42.596Z,93.82
2022-09-12T19:26:11.834Z,93.90
2022-09-12T19:28:39.613Z,94.16
2022-09-12T19:31:08.277Z,94.26
2022-09-12T19:33:35.700Z,94.50
2022-09-12T19:36:04.592Z,94.48
2022-09-12T19:38:31.437Z,94.21
2022-09-12T19:41:13.458Z,94.09
2022-09-12T19:43:41.939Z,94.29
2022-09-12T19:46:16.336Z,94.05
2022-09-12T19:48:43.179Z,93.94
2022-09-12T19:51:10.205Z,93.59
2022-09-12T19:53:38.296Z,93.38
2022-09-12T19:56:06.114Z,93.36
2022-09-12T19:58:38.220Z,93.30
2022-09-12T20:01:09.835Z,93.49
2022-09-12T20:03:37.263Z,93.37
2022-09-12T20:06:05.873Z,93.18
2022-09-12T20:08:34.145Z,93.04
2022-09-12T20:11:01.729Z,93.09
2022-09-12T20:13:28.550Z,93.35
2022-09-12T20:15:55.199Z,93.35
2022-09-12T20:18:22.092Z,93.47
2022-09-12T20:20:48.772Z,93.62
2022-09-12T20:23:15.395Z,93.72
2022-09-12T20:25:42.421Z,93.79
2022-09-12T20:28:09.086Z,94.04
2022-09-12T20:30:35.760Z,94.28
2022-09-12T20:33:02.664Z,94.11
2022-09-12T20:35:29.402Z,94.11
2022-09-12T20:37:56.054Z,94.28
2022-09-12T20:40:23.833Z,94.64
2022-09-12T20:42:50.591Z,94.60
2022-09-12T20:45:17.213Z,94.45
2022-09-12T20:47:44.076Z,94.41
2022-09-12T20:50:10.695Z,94.34
2022-09-12T20:52:37.311Z,94.49
2022-09-12T20:55:04.606Z,94.53
2022-09-12T20:57:31.328Z,94.63
2022-09-12T20:59:57.963Z,94.46
2022-09-12T21:02:25.007Z,94.31
2022-09-12T21:04:51.806Z,94.16
2022-09-12T21:07:18.470Z,94.08
2022-09-12T21:09:45.806Z,94.33
2022-09-12T21:12:12.558Z,94.26
2022-09-12T21:14:39.328Z,94.17
2022-09-12T21:17:06.295Z,94.25
2022-09-12T21:19:32.894Z,94.23
2022-09-12T21:21:59.495Z,94.18
2022-09-12T21:24:26.446Z,94.40
2022-09-12T21:26:53.048Z,94.23
2022-09-12T21:29:20.074Z,94.24
2022-09-12T21:31:47.095Z,94.32
2022-09-12T21:34:14.010Z,94.19
2022-09-12T21:36:40.724Z,94.03
2022-09-12T21:39:07.709Z,94.01
2022-09-12T21:41:34.425Z,93.98
2022-09-12T21:44:01.235Z,93.95
2022-09-12T21:46:28.355Z,93.77
2022-09-12T21:48:55.061Z,93.97
2022-09-12T21:51:22.011Z,93.89
2022-09-12T21:53:49.103Z,94.01
2022-09-12T21:56:15.896Z,93.78
2022-09-12T21:58:42.709Z,93.89
2022-09-12T22:01:11.558Z,93.95
2022-09-12T22:03:38.556Z,94.06
2022-09-12T22:06:06.125Z,94.30
2022-09-12T22:08:34.208Z,94.37
2022-09-12T22:11:04.509Z,94.48
2022-09-12T22:13:32.306Z,94.61
2022-09-12T22:16:00.675Z,94.80
2022-09-12T22:18:27.566Z,94.83
2022-09-12T22:21:05.643Z,95.03
2022-09-12T22:23:51.420Z,95.21
2022-09-12T22:26:18.082Z,95.09
2022-09-12T22:28:45.147Z,95.23
2022-09-12T22:31:13.268Z,95.26
2022-09-12T22:33:40.020Z,95.39
2022-09-12T22:36:07.903Z,95.54
2022-09-12T22:38:34.488Z,95.54
2022-09-12T22:41:06.503Z,95.54
2022-09-12T22:43:34.683Z,95.69
2022-09-12T22:46:02.045Z,95.81
2022-09-12T22:48:28.691Z,95.89
2022-09-12T22:50:55.715Z,95.94
2022-09-12T22:53:22.411Z,96.05
2022-09-12T22:55:49.228Z,96.16
2022-09-12T22:58:16.437Z,96.28
2022-09-12T23:00:51.144Z,96.40
2022-09-12T23:03:19.296Z,96.46
2022-09-12T23:05:49.921Z,96.46
2022-09-12T23:08:17.775Z,96.73
2022-09-12T23:10:44.771Z,96.81
2022-09-12T23:13:11.833Z,97.10
2022-09-12T23:15:38.797Z,97.15
2022-09-12T23:18:05.848Z,97.14
2022-09-12T23:20:32.612Z,97.16
2022-09-12T23:22:59.209Z,97.23
2022-09-12T23:25:26.346Z,97.27
2022-09-12T23:27:53.504Z,97.31
2022-09-12T23:30:21.451Z,97.39
2022-09-12T23:32:49.147Z,97.53
2022-09-12T23:35:19.673Z,97.70
2022-09-12T23:37:46.998Z,97.75
2022-09-12T23:40:14.188Z,97.76
2022-09-12T23:42:40.909Z,97.88
2022-09-12T23:45:08.233Z,97.92
2022-09-12T23:47:35.140Z,98.01
2022-09-12T23:50:01.798Z,98.03
2022-09-12T23:52:28.458Z,98.11
2022-09-12T23:54:55.400Z,98.13
2022-09-12T23:57:21.987Z,98.08
2022-09-12T23:59:48.662Z,98.10
